sensor_id;sensor_type;location;lat;lon;timestamp;P1;durP1;ratioP1;P2;durP2;ratioP2
70899;SDS011;67902;52.154;5.430;2023-03-30T00:00:56;11.38;;;3.55;;
70899;SDS011;67902;52.154;5.430;2023-03-30T00:03:22;9.70;;;3.50;;
70899;SDS011;67902;52.154;5.430;2023-03-30T00:05:49;13.90;;;3.28;;
70899;SDS011;67902;52.154;5.430;2023-03-30T00:08:23;8.65;;;3.45;;
70899;SDS011;67902;52.154;5.430;2023-03-30T00:11:00;10.52;;;3.90;;
70899;SDS011;67902;52.154;5.430;2023-03-30T00:13:31;9.85;;;3.42;;
70899;SDS011;67902;52.154;5.430;2023-03-30T00:15:59;9.60;;;3.55;;
70899;SDS011;67902;52.154;5.430;2023-03-30T00:18:26;8.63;;;3.40;;
70899;SDS011;67902;52.154;5.430;2023-03-30T00:20:54;9.38;;;3.50;;
70899;SDS011;67902;52.154;5.430;2023-03-30T00:23:23;9.50;;;3.15;;
70899;SDS011;67902;52.154;5.430;2023-03-30T00:25:49;10.23;;;3.83;;
70899;SDS011;67902;52.154;5.430;2023-03-30T00:28:16;10.13;;;3.30;;
70899;SDS011;67902;52.154;5.430;2023-03-30T00:30:42;9.88;;;3.38;;
70899;SDS011;67902;52.154;5.430;2023-03-30T00:33:09;11.45;;;3.47;;
70899;SDS011;67902;52.154;5.430;2023-03-30T00:35:36;8.52;;;3.42;;
70899;SDS011;67902;52.154;5.430;2023-03-30T00:38:02;9.80;;;3.25;;
70899;SDS011;67902;52.154;5.430;2023-03-30T00:40:29;8.20;;;2.80;;
70899;SDS011;67902;52.154;5.430;2023-03-30T00:43:01;9.38;;;2.90;;
70899;SDS011;67902;52.154;5.430;2023-03-30T00:45:30;9.82;;;2.67;;
70899;SDS011;67902;52.154;5.430;2023-03-30T00:48:04;8.55;;;3.00;;
70899;SDS011;67902;52.154;5.430;2023-03-30T00:50:38;7.30;;;2.72;;
70899;SDS011;67902;52.154;5.430;2023-03-30T00:53:10;8.40;;;3.13;;
70899;SDS011;67902;52.154;5.430;2023-03-30T00:55:42;11.77;;;2.80;;
70899;SDS011;67902;52.154;5.430;2023-03-30T00:58:11;9.50;;;2.92;;
70899;SDS011;67902;52.154;5.430;2023-03-30T01:00:40;7.55;;;2.53;;
70899;SDS011;67902;52.154;5.430;2023-03-30T01:03:29;8.82;;;2.70;;
70899;SDS011;67902;52.154;5.430;2023-03-30T01:05:58;6.75;;;2.33;;
70899;SDS011;67902;52.154;5.430;2023-03-30T01:08:28;10.35;;;2.80;;
70899;SDS011;67902;52.154;5.430;2023-03-30T01:10:58;8.25;;;2.42;;
70899;SDS011;67902;52.154;5.430;2023-03-30T01:13:29;6.80;;;2.65;;
70899;SDS011;67902;52.154;5.430;2023-03-30T01:26:45;7.68;;;2.28;;
70899;SDS011;67902;52.154;5.430;2023-03-30T01:29:19;7.88;;;2.60;;
70899;SDS011;67902;52.154;5.430;2023-03-30T01:38:13;8.60;;;2.25;;
70899;SDS011;67902;52.154;5.430;2023-03-30T01:43:37;7.60;;;2.40;;
70899;SDS011;67902;52.154;5.430;2023-03-30T01:48:48;6.32;;;2.08;;
70899;SDS011;67902;52.154;5.430;2023-03-30T01:51:29;8.23;;;2.22;;
70899;SDS011;67902;52.154;5.430;2023-03-30T01:54:08;10.30;;;2.58;;
70899;SDS011;67902;52.154;5.430;2023-03-30T01:56:43;10.20;;;2.47;;
70899;SDS011;67902;52.154;5.430;2023-03-30T01:59:19;7.05;;;2.45;;
70899;SDS011;67902;52.154;5.430;2023-03-30T02:01:52;7.65;;;2.30;;
70899;SDS011;67902;52.154;5.430;2023-03-30T02:04:29;7.22;;;2.58;;
70899;SDS011;67902;52.154;5.430;2023-03-30T02:07:03;9.70;;;2.53;;
70899;SDS011;67902;52.154;5.430;2023-03-30T02:09:35;7.07;;;2.80;;
70899;SDS011;67902;52.154;5.430;2023-03-30T02:12:04;8.50;;;2.33;;
70899;SDS011;67902;52.154;5.430;2023-03-30T02:14:33;8.88;;;2.47;;
70899;SDS011;67902;52.154;5.430;2023-03-30T02:17:08;7.05;;;2.35;;
70899;SDS011;67902;52.154;5.430;2023-03-30T02:19:40;6.38;;;2.65;;
70899;SDS011;67902;52.154;5.430;2023-03-30T02:22:08;7.18;;;2.38;;
70899;SDS011;67902;52.154;5.430;2023-03-30T02:24:34;11.50;;;2.70;;
70899;SDS011;67902;52.154;5.430;2023-03-30T02:27:01;8.63;;;2.50;;
70899;SDS011;67902;52.154;5.430;2023-03-30T02:29:28;8.18;;;2.50;;
70899;SDS011;67902;52.154;5.430;2023-03-30T02:31:59;8.40;;;2.63;;
70899;SDS011;67902;52.154;5.430;2023-03-30T02:49:15;8.75;;;2.17;;
70899;SDS011;67902;52.154;5.430;2023-03-30T02:51:53;8.95;;;2.30;;
70899;SDS011;67902;52.154;5.430;2023-03-30T02:54:40;8.38;;;2.40;;
70899;SDS011;67902;52.154;5.430;2023-03-30T02:57:10;7.63;;;2.25;;
70899;SDS011;67902;52.154;5.430;2023-03-30T02:59:48;5.85;;;2.25;;
70899;SDS011;67902;52.154;5.430;2023-03-30T03:02:22;8.35;;;2.42;;
70899;SDS011;67902;52.154;5.430;2023-03-30T03:07:22;5.55;;;1.95;;
70899;SDS011;67902;52.154;5.430;2023-03-30T03:09:50;6.40;;;2.03;;
70899;SDS011;67902;52.154;5.430;2023-03-30T03:12:16;10.68;;;2.33;;
70899;SDS011;67902;52.154;5.430;2023-03-30T03:14:43;6.47;;;2.20;;
70899;SDS011;67902;52.154;5.430;2023-03-30T03:17:10;8.13;;;2.25;;
70899;SDS011;67902;52.154;5.430;2023-03-30T03:19:38;7.68;;;2.00;;
70899;SDS011;67902;52.154;5.430;2023-03-30T03:22:05;7.80;;;2.30;;
70899;SDS011;67902;52.154;5.430;2023-03-30T03:24:32;7.13;;;1.85;;
70899;SDS011;67902;52.154;5.430;2023-03-30T03:26:59;7.03;;;1.73;;
70899;SDS011;67902;52.154;5.430;2023-03-30T03:29:25;5.82;;;2.10;;
70899;SDS011;67902;52.154;5.430;2023-03-30T03:31:52;7.40;;;2.35;;
70899;SDS011;67902;52.154;5.430;2023-03-30T03:34:18;9.90;;;1.65;;
70899;SDS011;67902;52.154;5.430;2023-03-30T03:36:45;6.82;;;1.92;;
70899;SDS011;67902;52.154;5.430;2023-03-30T03:39:11;9.10;;;1.80;;
70899;SDS011;67902;52.154;5.430;2023-03-30T03:41:38;8.35;;;1.65;;
70899;SDS011;67902;52.154;5.430;2023-03-30T03:44:04;10.18;;;1.60;;
70899;SDS011;67902;52.154;5.430;2023-03-30T03:46:31;5.07;;;1.35;;
70899;SDS011;67902;52.154;5.430;2023-03-30T03:48:57;6.93;;;1.92;;
70899;SDS011;67902;52.154;5.430;2023-03-30T03:51:24;6.60;;;1.80;;
70899;SDS011;67902;52.154;5.430;2023-03-30T03:53:51;7.60;;;1.63;;
70899;SDS011;67902;52.154;5.430;2023-03-30T03:56:19;6.00;;;1.60;;
70899;SDS011;67902;52.154;5.430;2023-03-30T03:58:45;6.03;;;1.60;;
70899;SDS011;67902;52.154;5.430;2023-03-30T04:01:12;6.50;;;1.50;;
70899;SDS011;67902;52.154;5.430;2023-03-30T04:03:39;4.78;;;1.42;;
70899;SDS011;67902;52.154;5.430;2023-03-30T04:06:06;6.10;;;1.60;;
70899;SDS011;67902;52.154;5.430;2023-03-30T04:08:34;7.97;;;1.40;;
70899;SDS011;67902;52.154;5.430;2023-03-30T04:11:05;7.82;;;1.77;;
70899;SDS011;67902;52.154;5.430;2023-03-30T04:13:33;6.22;;;1.40;;
70899;SDS011;67902;52.154;5.430;2023-03-30T04:16:00;5.85;;;1.60;;
70899;SDS011;67902;52.154;5.430;2023-03-30T04:18:27;6.53;;;1.40;;
70899;SDS011;67902;52.154;5.430;2023-03-30T04:20:56;7.97;;;1.70;;
70899;SDS011;67902;52.154;5.430;2023-03-30T04:23:24;7.20;;;1.98;;
70899;SDS011;67902;52.154;5.430;2023-03-30T04:25:56;6.88;;;1.50;;
70899;SDS011;67902;52.154;5.430;2023-03-30T04:28:23;6.95;;;1.60;;
70899;SDS011;67902;52.154;5.430;2023-03-30T04:30:49;6.63;;;1.60;;
70899;SDS011;67902;52.154;5.430;2023-03-30T04:33:16;6.25;;;1.55;;
70899;SDS011;67902;52.154;5.430;2023-03-30T04:35:43;7.28;;;1.55;;
70899;SDS011;67902;52.154;5.430;2023-03-30T04:38:09;9.27;;;1.65;;
70899;SDS011;67902;52.154;5.430;2023-03-30T04:40:35;6.93;;;1.50;;
70899;SDS011;67902;52.154;5.430;2023-03-30T04:43:03;7.63;;;1.52;;
70899;SDS011;67902;52.154;5.430;2023-03-30T04:45:29;7.35;;;1.80;;
70899;SDS011;67902;52.154;5.430;2023-03-30T04:47:56;8.63;;;1.60;;
70899;SDS011;67902;52.154;5.430;2023-03-30T04:50:23;7.10;;;1.65;;
70899;SDS011;67902;52.154;5.430;2023-03-30T04:52:49;6.15;;;1.65;;
70899;SDS011;67902;52.154;5.430;2023-03-30T04:55:16;7.40;;;1.85;;
70899;SDS011;67902;52.154;5.430;2023-03-30T04:57:42;9.98;;;1.58;;
70899;SDS011;67902;52.154;5.430;2023-03-30T05:00:09;8.95;;;2.10;;
70899;SDS011;67902;52.154;5.430;2023-03-30T05:02:35;4.38;;;1.48;;
70899;SDS011;67902;52.154;5.430;2023-03-30T05:05:02;9.05;;;1.90;;
70899;SDS011;67902;52.154;5.430;2023-03-30T05:07:29;8.52;;;1.67;;
70899;SDS011;67902;52.154;5.430;2023-03-30T05:09:55;6.65;;;1.50;;
70899;SDS011;67902;52.154;5.430;2023-03-30T05:12:22;5.20;;;1.50;;
70899;SDS011;67902;52.154;5.430;2023-03-30T05:14:48;7.68;;;1.65;;
70899;SDS011;67902;52.154;5.430;2023-03-30T05:17:14;8.82;;;1.77;;
70899;SDS011;67902;52.154;5.430;2023-03-30T05:19:41;6.68;;;1.42;;
70899;SDS011;67902;52.154;5.430;2023-03-30T05:22:08;10.20;;;1.60;;
70899;SDS011;67902;52.154;5.430;2023-03-30T05:24:34;6.35;;;1.63;;
70899;SDS011;67902;52.154;5.430;2023-03-30T05:27:01;8.55;;;2.03;;
70899;SDS011;67902;52.154;5.430;2023-03-30T05:29:27;10.48;;;1.98;;
70899;SDS011;67902;52.154;5.430;2023-03-30T05:31:54;10.07;;;2.13;;
70899;SDS011;67902;52.154;5.430;2023-03-30T05:34:20;10.45;;;1.92;;
70899;SDS011;67902;52.154;5.430;2023-03-30T05:36:47;8.68;;;2.20;;
70899;SDS011;67902;52.154;5.430;2023-03-30T05:39:13;8.30;;;2.13;;
70899;SDS011;67902;52.154;5.430;2023-03-30T05:41:40;9.88;;;2.22;;
70899;SDS011;67902;52.154;5.430;2023-03-30T05:44:06;7.18;;;2.10;;
70899;SDS011;67902;52.154;5.430;2023-03-30T05:46:33;11.55;;;2.30;;
70899;SDS011;67902;52.154;5.430;2023-03-30T05:48:59;12.13;;;2.70;;
70899;SDS011;67902;52.154;5.430;2023-03-30T05:51:26;11.20;;;2.45;;
70899;SDS011;67902;52.154;5.430;2023-03-30T05:53:53;12.95;;;2.53;;
70899;SDS011;67902;52.154;5.430;2023-03-30T05:56:20;11.20;;;2.20;;
70899;SDS011;67902;52.154;5.430;2023-03-30T05:58:48;11.30;;;3.28;;
70899;SDS011;67902;52.154;5.430;2023-03-30T06:01:15;14.00;;;3.33;;
70899;SDS011;67902;52.154;5.430;2023-03-30T06:03:41;13.13;;;2.50;;
70899;SDS011;67902;52.154;5.430;2023-03-30T06:06:08;11.18;;;2.38;;
70899;SDS011;67902;52.154;5.430;2023-03-30T06:08:34;13.20;;;2.60;;
70899;SDS011;67902;52.154;5.430;2023-03-30T06:11:01;12.98;;;2.53;;
70899;SDS011;67902;52.154;5.430;2023-03-30T06:13:28;9.63;;;2.60;;
70899;SDS011;67902;52.154;5.430;2023-03-30T06:15:55;15.45;;;2.72;;
70899;SDS011;67902;52.154;5.430;2023-03-30T06:18:22;15.07;;;2.90;;
70899;SDS011;67902;52.154;5.430;2023-03-30T06:20:49;12.05;;;2.72;;
70899;SDS011;67902;52.154;5.430;2023-03-30T06:23:17;13.82;;;2.72;;
70899;SDS011;67902;52.154;5.430;2023-03-30T06:25:44;12.10;;;2.45;;
70899;SDS011;67902;52.154;5.430;2023-03-30T06:28:12;10.32;;;1.92;;
70899;SDS011;67902;52.154;5.430;2023-03-30T06:30:38;13.68;;;2.50;;
70899;SDS011;67902;52.154;5.430;2023-03-30T06:33:06;9.65;;;1.80;;
70899;SDS011;67902;52.154;5.430;2023-03-30T06:35:33;8.85;;;2.33;;
70899;SDS011;67902;52.154;5.430;2023-03-30T06:37:59;11.20;;;2.47;;
70899;SDS011;67902;52.154;5.430;2023-03-30T06:40:26;9.85;;;2.42;;
70899;SDS011;67902;52.154;5.430;2023-03-30T06:42:53;11.27;;;2.15;;
70899;SDS011;67902;52.154;5.430;2023-03-30T06:45:19;12.48;;;2.10;;
70899;SDS011;67902;52.154;5.430;2023-03-30T06:47:45;13.02;;;2.28;;
70899;SDS011;67902;52.154;5.430;2023-03-30T06:50:12;15.18;;;2.15;;
70899;SDS011;67902;52.154;5.430;2023-03-30T06:52:39;11.45;;;2.30;;
70899;SDS011;67902;52.154;5.430;2023-03-30T06:55:06;10.20;;;2.20;;
70899;SDS011;67902;52.154;5.430;2023-03-30T06:57:33;11.15;;;2.05;;
70899;SDS011;67902;52.154;5.430;2023-03-30T06:59:59;12.00;;;2.10;;
70899;SDS011;67902;52.154;5.430;2023-03-30T07:02:26;15.77;;;2.25;;
70899;SDS011;67902;52.154;5.430;2023-03-30T07:04:53;15.65;;;2.30;;
70899;SDS011;67902;52.154;5.430;2023-03-30T07:07:19;14.35;;;2.13;;
70899;SDS011;67902;52.154;5.430;2023-03-30T07:09:46;15.68;;;2.30;;
70899;SDS011;67902;52.154;5.430;2023-03-30T07:12:12;16.27;;;2.45;;
70899;SDS011;67902;52.154;5.430;2023-03-30T07:14:38;13.13;;;2.40;;
70899;SDS011;67902;52.154;5.430;2023-03-30T07:17:05;16.70;;;2.53;;
70899;SDS011;67902;52.154;5.430;2023-03-30T07:19:33;20.08;;;2.70;;
70899;SDS011;67902;52.154;5.430;2023-03-30T07:21:59;14.02;;;2.13;;
70899;SDS011;67902;52.154;5.430;2023-03-30T07:24:26;17.90;;;2.70;;
70899;SDS011;67902;52.154;5.430;2023-03-30T07:26:55;17.85;;;2.60;;
70899;SDS011;67902;52.154;5.430;2023-03-30T07:29:22;15.93;;;2.17;;
70899;SDS011;67902;52.154;5.430;2023-03-30T07:31:48;15.13;;;2.00;;
70899;SDS011;67902;52.154;5.430;2023-03-30T07:34:16;15.75;;;2.30;;
70899;SDS011;67902;52.154;5.430;2023-03-30T07:36:42;14.65;;;3.20;;
70899;SDS011;67902;52.154;5.430;2023-03-30T07:39:09;14.88;;;2.60;;
70899;SDS011;67902;52.154;5.430;2023-03-30T07:41:36;18.90;;;2.60;;
70899;SDS011;67902;52.154;5.430;2023-03-30T07:44:02;19.23;;;3.15;;
70899;SDS011;67902;52.154;5.430;2023-03-30T07:46:29;13.07;;;2.15;;
70899;SDS011;67902;52.154;5.430;2023-03-30T07:48:56;20.73;;;3.40;;
70899;SDS011;67902;52.154;5.430;2023-03-30T07:51:23;10.32;;;2.78;;
70899;SDS011;67902;52.154;5.430;2023-03-30T07:53:53;12.00;;;2.60;;
70899;SDS011;67902;52.154;5.430;2023-03-30T07:56:19;19.95;;;3.17;;
70899;SDS011;67902;52.154;5.430;2023-03-30T07:58:45;17.60;;;2.92;;
70899;SDS011;67902;52.154;5.430;2023-03-30T08:01:12;15.02;;;2.30;;
70899;SDS011;67902;52.154;5.430;2023-03-30T08:03:38;15.90;;;2.55;;
70899;SDS011;67902;52.154;5.430;2023-03-30T08:06:05;15.93;;;2.88;;
70899;SDS011;67902;52.154;5.430;2023-03-30T08:08:32;15.93;;;2.47;;
70899;SDS011;67902;52.154;5.430;2023-03-30T08:10:59;15.18;;;2.55;;
70899;SDS011;67902;52.154;5.430;2023-03-30T08:13:26;13.07;;;2.42;;
70899;SDS011;67902;52.154;5.430;2023-03-30T08:15:52;17.42;;;2.80;;
70899;SDS011;67902;52.154;5.430;2023-03-30T08:18:19;12.43;;;2.47;;
70899;SDS011;67902;52.154;5.430;2023-03-30T08:20:48;11.20;;;2.17;;
70899;SDS011;67902;52.154;5.430;2023-03-30T08:23:16;16.20;;;2.40;;
70899;SDS011;67902;52.154;5.430;2023-03-30T08:25:43;13.50;;;2.75;;
70899;SDS011;67902;52.154;5.430;2023-03-30T08:28:12;15.35;;;2.75;;
70899;SDS011;67902;52.154;5.430;2023-03-30T08:30:39;17.20;;;2.70;;
70899;SDS011;67902;52.154;5.430;2023-03-30T08:33:05;17.65;;;3.22;;
70899;SDS011;67902;52.154;5.430;2023-03-30T08:35:34;16.15;;;2.83;;
70899;SDS011;67902;52.154;5.430;2023-03-30T08:38:00;20.60;;;3.17;;
70899;SDS011;67902;52.154;5.430;2023-03-30T08:40:27;11.13;;;2.53;;
70899;SDS011;67902;52.154;5.430;2023-03-30T08:46:00;21.55;;;3.25;;
70899;SDS011;67902;52.154;5.430;2023-03-30T08:48:31;15.88;;;2.70;;
70899;SDS011;67902;52.154;5.430;2023-03-30T08:51:04;18.00;;;2.75;;
70899;SDS011;67902;52.154;5.430;2023-03-30T08:53:40;15.25;;;2.50;;
70899;SDS011;67902;52.154;5.430;2023-03-30T08:56:11;17.63;;;2.83;;
70899;SDS011;67902;52.154;5.430;2023-03-30T09:07:23;19.38;;;2.95;;
70899;SDS011;67902;52.154;5.430;2023-03-30T09:09:52;17.40;;;2.53;;
70899;SDS011;67902;52.154;5.430;2023-03-30T09:12:39;16.48;;;2.50;;
70899;SDS011;67902;52.154;5.430;2023-03-30T09:17:52;14.40;;;2.38;;
70899;SDS011;67902;52.154;5.430;2023-03-30T09:20:29;14.20;;;2.60;;
70899;SDS011;67902;52.154;5.430;2023-03-30T09:22:58;15.35;;;2.38;;
70899;SDS011;67902;52.154;5.430;2023-03-30T09:28:06;18.40;;;2.38;;
70899;SDS011;67902;52.154;5.430;2023-03-30T09:30:44;13.65;;;2.20;;
70899;SDS011;67902;52.154;5.430;2023-03-30T09:33:43;14.43;;;2.10;;
70899;SDS011;67902;52.154;5.430;2023-03-30T09:36:42;14.65;;;2.72;;
70899;SDS011;67902;52.154;5.430;2023-03-30T09:39:17;14.73;;;2.45;;
70899;SDS011;67902;52.154;5.430;2023-03-30T09:42:07;11.20;;;2.03;;
70899;SDS011;67902;52.154;5.430;2023-03-30T09:44:58;15.85;;;2.42;;
70899;SDS011;67902;52.154;5.430;2023-03-30T09:47:33;14.90;;;3.20;;
70899;SDS011;67902;52.154;5.430;2023-03-30T09:50:09;19.95;;;2.85;;
70899;SDS011;67902;52.154;5.430;2023-03-30T09:52:41;15.10;;;2.83;;
70899;SDS011;67902;52.154;5.430;2023-03-30T09:57:48;16.73;;;2.95;;
70899;SDS011;67902;52.154;5.430;2023-03-30T10:00:28;17.70;;;3.08;;
70899;SDS011;67902;52.154;5.430;2023-03-30T10:03:01;18.80;;;3.03;;
70899;SDS011;67902;52.154;5.430;2023-03-30T10:05:30;19.13;;;2.83;;
70899;SDS011;67902;52.154;5.430;2023-03-30T10:07:59;15.40;;;2.40;;
70899;SDS011;67902;52.154;5.430;2023-03-30T10:10:32;19.60;;;2.85;;
70899;SDS011;67902;52.154;5.430;2023-03-30T10:13:05;19.20;;;2.58;;
70899;SDS011;67902;52.154;5.430;2023-03-30T10:15:35;19.40;;;3.35;;
70899;SDS011;67902;52.154;5.430;2023-03-30T10:18:26;18.67;;;3.00;;
70899;SDS011;67902;52.154;5.430;2023-03-30T10:21:00;18.33;;;3.33;;
70899;SDS011;67902;52.154;5.430;2023-03-30T10:23:30;20.13;;;2.78;;
70899;SDS011;67902;52.154;5.430;2023-03-30T10:26:00;22.02;;;3.03;;
70899;SDS011;67902;52.154;5.430;2023-03-30T10:28:29;19.08;;;2.80;;
70899;SDS011;67902;52.154;5.430;2023-03-30T10:30:59;16.80;;;2.90;;
70899;SDS011;67902;52.154;5.430;2023-03-30T10:33:29;19.90;;;2.80;;
70899;SDS011;67902;52.154;5.430;2023-03-30T10:35:57;18.42;;;2.80;;
70899;SDS011;67902;52.154;5.430;2023-03-30T10:38:29;20.92;;;3.42;;
70899;SDS011;67902;52.154;5.430;2023-03-30T10:40:59;18.80;;;2.50;;
70899;SDS011;67902;52.154;5.430;2023-03-30T10:46:33;19.63;;;2.53;;
70899;SDS011;67902;52.154;5.430;2023-03-30T10:49:00;22.50;;;3.22;;
70899;SDS011;67902;52.154;5.430;2023-03-30T10:54:41;18.35;;;4.25;;
70899;SDS011;67902;52.154;5.430;2023-03-30T10:57:15;15.90;;;2.42;;
70899;SDS011;67902;52.154;5.430;2023-03-30T10:59:55;19.92;;;2.55;;
70899;SDS011;67902;52.154;5.430;2023-03-30T11:05:09;22.83;;;3.22;;
70899;SDS011;67902;52.154;5.430;2023-03-30T11:07:52;19.08;;;3.35;;
70899;SDS011;67902;52.154;5.430;2023-03-30T11:10:26;19.30;;;2.53;;
70899;SDS011;67902;52.154;5.430;2023-03-30T11:13:01;20.10;;;3.30;;
70899;SDS011;67902;52.154;5.430;2023-03-30T11:20:58;18.58;;;2.80;;
70899;SDS011;67902;52.154;5.430;2023-03-30T11:26:23;17.45;;;2.78;;
70899;SDS011;67902;52.154;5.430;2023-03-30T11:29:01;18.58;;;2.33;;
70899;SDS011;67902;52.154;5.430;2023-03-30T11:34:53;14.20;;;2.30;;
70899;SDS011;67902;52.154;5.430;2023-03-30T11:37:28;18.95;;;2.67;;
70899;SDS011;67902;52.154;5.430;2023-03-30T11:40:02;21.02;;;2.90;;
70899;SDS011;67902;52.154;5.430;2023-03-30T11:42:39;13.32;;;2.25;;
70899;SDS011;67902;52.154;5.430;2023-03-30T11:45:16;19.13;;;2.53;;
70899;SDS011;67902;52.154;5.430;2023-03-30T11:48:04;18.70;;;2.60;;
70899;SDS011;67902;52.154;5.430;2023-03-30T11:53:26;16.52;;;2.25;;
70899;SDS011;67902;52.154;5.430;2023-03-30T11:56:06;17.73;;;2.33;;
70899;SDS011;67902;52.154;5.430;2023-03-30T11:58:58;17.27;;;2.78;;
70899;SDS011;67902;52.154;5.430;2023-03-30T12:04:46;12.10;;;1.92;;
70899;SDS011;67902;52.154;5.430;2023-03-30T12:10:09;13.20;;;2.20;;
70899;SDS011;67902;52.154;5.430;2023-03-30T12:12:45;17.73;;;2.45;;
70899;SDS011;67902;52.154;5.430;2023-03-30T12:15:26;18.10;;;2.88;;
70899;SDS011;67902;52.154;5.430;2023-03-30T12:28:46;19.92;;;2.63;;
70899;SDS011;67902;52.154;5.430;2023-03-30T12:34:16;13.10;;;2.38;;
70899;SDS011;67902;52.154;5.430;2023-03-30T12:36:47;18.63;;;3.10;;
70899;SDS011;67902;52.154;5.430;2023-03-30T12:39:19;18.15;;;2.97;;
70899;SDS011;67902;52.154;5.430;2023-03-30T12:41:56;20.77;;;2.60;;
70899;SDS011;67902;52.154;5.430;2023-03-30T12:44:33;19.05;;;2.78;;
70899;SDS011;67902;52.154;5.430;2023-03-30T12:47:44;23.73;;;3.33;;
70899;SDS011;67902;52.154;5.430;2023-03-30T12:56:09;19.50;;;2.88;;
70899;SDS011;67902;52.154;5.430;2023-03-30T13:05:34;15.75;;;2.38;;
70899;SDS011;67902;52.154;5.430;2023-03-30T13:08:05;18.35;;;2.05;;
70899;SDS011;67902;52.154;5.430;2023-03-30T13:10:41;16.80;;;2.25;;
70899;SDS011;67902;52.154;5.430;2023-03-30T13:15:52;20.77;;;2.70;;
70899;SDS011;67902;52.154;5.430;2023-03-30T13:18:23;22.60;;;2.70;;
70899;SDS011;67902;52.154;5.430;2023-03-30T13:25:50;14.88;;;2.63;;
70899;SDS011;67902;52.154;5.430;2023-03-30T13:28:43;22.90;;;3.20;;
70899;SDS011;67902;52.154;5.430;2023-03-30T13:39:47;27.55;;;4.03;;
70899;SDS011;67902;52.154;5.430;2023-03-30T13:42:38;22.88;;;2.70;;
70899;SDS011;67902;52.154;5.430;2023-03-30T13:48:06;15.65;;;2.70;;
70899;SDS011;67902;52.154;5.430;2023-03-30T13:50:46;14.07;;;2.60;;
70899;SDS011;67902;52.154;5.430;2023-03-30T13:53:19;18.75;;;3.33;;
70899;SDS011;67902;52.154;5.430;2023-03-30T13:55:47;18.00;;;2.83;;
70899;SDS011;67902;52.154;5.430;2023-03-30T13:58:19;21.35;;;3.63;;
70899;SDS011;67902;52.154;5.430;2023-03-30T14:01:09;19.50;;;2.63;;
70899;SDS011;67902;52.154;5.430;2023-03-30T14:08:39;15.95;;;2.38;;
70899;SDS011;67902;52.154;5.430;2023-03-30T14:11:10;18.73;;;2.13;;
70899;SDS011;67902;52.154;5.430;2023-03-30T14:13:38;17.92;;;3.00;;
70899;SDS011;67902;52.154;5.430;2023-03-30T14:16:05;21.10;;;3.85;;
70899;SDS011;67902;52.154;5.430;2023-03-30T14:18:33;21.63;;;2.70;;
70899;SDS011;67902;52.154;5.430;2023-03-30T14:21:01;19.13;;;2.38;;
70899;SDS011;67902;52.154;5.430;2023-03-30T14:23:36;17.73;;;3.47;;
70899;SDS011;67902;52.154;5.430;2023-03-30T14:26:14;17.45;;;2.67;;
70899;SDS011;67902;52.154;5.430;2023-03-30T14:31:14;16.08;;;2.72;;
70899;SDS011;67902;52.154;5.430;2023-03-30T14:33:46;18.05;;;3.65;;
70899;SDS011;67902;52.154;5.430;2023-03-30T14:36:14;19.10;;;2.65;;
70899;SDS011;67902;52.154;5.430;2023-03-30T14:38:43;25.70;;;9.40;;
70899;SDS011;67902;52.154;5.430;2023-03-30T14:41:14;22.60;;;2.70;;
70899;SDS011;67902;52.154;5.430;2023-03-30T14:43:46;15.95;;;2.55;;
70899;SDS011;67902;52.154;5.430;2023-03-30T14:46:18;14.20;;;2.45;;
70899;SDS011;67902;52.154;5.430;2023-03-30T14:48:46;20.90;;;3.53;;
70899;SDS011;67902;52.154;5.430;2023-03-30T14:54:00;18.67;;;2.90;;
70899;SDS011;67902;52.154;5.430;2023-03-30T14:58:54;17.38;;;2.58;;
70899;SDS011;67902;52.154;5.430;2023-03-30T15:01:25;13.38;;;2.17;;
70899;SDS011;67902;52.154;5.430;2023-03-30T15:04:09;16.35;;;2.45;;
70899;SDS011;67902;52.154;5.430;2023-03-30T15:06:40;14.00;;;2.35;;
70899;SDS011;67902;52.154;5.430;2023-03-30T15:11:42;15.52;;;2.47;;
70899;SDS011;67902;52.154;5.430;2023-03-30T15:14:17;16.00;;;2.47;;
70899;SDS011;67902;52.154;5.430;2023-03-30T15:16:46;16.52;;;2.33;;
70899;SDS011;67902;52.154;5.430;2023-03-30T15:19:25;19.73;;;2.10;;
70899;SDS011;67902;52.154;5.430;2023-03-30T15:22:04;18.70;;;2.28;;
70899;SDS011;67902;52.154;5.430;2023-03-30T15:24:38;16.25;;;2.60;;
70899;SDS011;67902;52.154;5.430;2023-03-30T15:27:06;15.50;;;2.33;;
70899;SDS011;67902;52.154;5.430;2023-03-30T15:29:38;12.45;;;2.10;;
70899;SDS011;67902;52.154;5.430;2023-03-30T15:32:06;13.05;;;2.25;;
70899;SDS011;67902;52.154;5.430;2023-03-30T15:37:32;12.45;;;2.45;;
70899;SDS011;67902;52.154;5.430;2023-03-30T15:40:00;13.18;;;2.70;;
70899;SDS011;67902;52.154;5.430;2023-03-30T15:42:30;19.83;;;2.65;;
70899;SDS011;67902;52.154;5.430;2023-03-30T15:45:01;12.95;;;2.45;;
70899;SDS011;67902;52.154;5.430;2023-03-30T15:47:39;11.82;;;2.55;;
70899;SDS011;67902;52.154;5.430;2023-03-30T15:50:10;15.68;;;2.33;;
70899;SDS011;67902;52.154;5.430;2023-03-30T15:52:42;12.13;;;2.20;;
70899;SDS011;67902;52.154;5.430;2023-03-30T15:55:16;18.25;;;2.50;;
70899;SDS011;67902;52.154;5.430;2023-03-30T15:57:46;12.07;;;1.85;;
70899;SDS011;67902;52.154;5.430;2023-03-30T16:00:17;14.73;;;2.38;;
70899;SDS011;67902;52.154;5.430;2023-03-30T16:02:56;12.95;;;2.15;;
70899;SDS011;67902;52.154;5.430;2023-03-30T16:05:26;15.55;;;1.98;;
70899;SDS011;67902;52.154;5.430;2023-03-30T16:07:55;11.25;;;2.17;;
70899;SDS011;67902;52.154;5.430;2023-03-30T16:10:28;17.15;;;2.42;;
70899;SDS011;67902;52.154;5.430;2023-03-30T16:12:57;15.55;;;2.25;;
70899;SDS011;67902;52.154;5.430;2023-03-30T16:15:26;12.23;;;1.75;;
70899;SDS011;67902;52.154;5.430;2023-03-30T16:17:55;11.88;;;2.40;;
70899;SDS011;67902;52.154;5.430;2023-03-30T16:20:23;16.80;;;2.75;;
70899;SDS011;67902;52.154;5.430;2023-03-30T16:22:51;13.63;;;2.25;;
70899;SDS011;67902;52.154;5.430;2023-03-30T16:25:19;11.77;;;1.98;;
70899;SDS011;67902;52.154;5.430;2023-03-30T16:27:53;13.80;;;2.13;;
70899;SDS011;67902;52.154;5.430;2023-03-30T16:30:22;14.98;;;1.88;;
70899;SDS011;67902;52.154;5.430;2023-03-30T16:32:53;12.50;;;1.80;;
70899;SDS011;67902;52.154;5.430;2023-03-30T16:35:20;11.07;;;1.70;;
70899;SDS011;67902;52.154;5.430;2023-03-30T16:37:47;14.23;;;2.35;;
70899;SDS011;67902;52.154;5.430;2023-03-30T16:42:55;12.23;;;1.92;;
70899;SDS011;67902;52.154;5.430;2023-03-30T16:45:22;13.65;;;2.60;;
70899;SDS011;67902;52.154;5.430;2023-03-30T16:47:49;17.20;;;6.13;;
70899;SDS011;67902;52.154;5.430;2023-03-30T16:50:23;13.23;;;3.08;;
70899;SDS011;67902;52.154;5.430;2023-03-30T16:52:52;12.52;;;2.03;;
70899;SDS011;67902;52.154;5.430;2023-03-30T16:55:18;9.93;;;2.05;;
70899;SDS011;67902;52.154;5.430;2023-03-30T16:57:45;13.20;;;2.05;;
70899;SDS011;67902;52.154;5.430;2023-03-30T17:02:46;13.50;;;1.95;;
70899;SDS011;67902;52.154;5.430;2023-03-30T17:05:12;12.02;;;2.05;;
70899;SDS011;67902;52.154;5.430;2023-03-30T17:07:39;15.77;;;2.45;;
70899;SDS011;67902;52.154;5.430;2023-03-30T17:12:52;13.52;;;2.33;;
70899;SDS011;67902;52.154;5.430;2023-03-30T17:15:20;12.43;;;2.00;;
70899;SDS011;67902;52.154;5.430;2023-03-30T17:17:48;14.77;;;2.03;;
70899;SDS011;67902;52.154;5.430;2023-03-30T17:20:29;15.85;;;2.17;;
70899;SDS011;67902;52.154;5.430;2023-03-30T17:23:00;12.45;;;2.10;;
70899;SDS011;67902;52.154;5.430;2023-03-30T17:25:27;13.80;;;1.92;;
70899;SDS011;67902;52.154;5.430;2023-03-30T17:27:54;13.52;;;1.92;;
70899;SDS011;67902;52.154;5.430;2023-03-30T17:30:23;14.10;;;2.50;;
70899;SDS011;67902;52.154;5.430;2023-03-30T17:32:51;12.38;;;2.10;;
70899;SDS011;67902;52.154;5.430;2023-03-30T17:35:21;16.85;;;2.10;;
70899;SDS011;67902;52.154;5.430;2023-03-30T17:37:49;13.32;;;1.50;;